Time;durP1;ratioP1;P1;durP2;ratioP2;P2;SDS_P1;SDS_P2;PMS_P1;PMS_P2;Temp;Humidity;BMP_temperature;BMP_pressure;BME280_temperature;BME280_humidity;BME280_pressure;Samples;Min_cycle;Max_cycle;Signal;HPM_P1;HPM_P2
2022/04/20 00:00:04;;;;;;;8.50;7.60;;;21.90;65.50;;;;;;6211003;28;88008;-69
2022/04/20 00:03:06;;;;;;;8.80;8.00;;;21.90;65.40;;;;;;6216184;28;88539;-71
2022/04/20 00:06:09;;;;;;;8.65;7.40;;;21.90;65.50;;;;;;6226910;28;87098;-70
2022/04/20 00:09:10;;;;;;;7.88;6.75;;;21.90;65.50;;;;;;6229117;28;87779;-69
2022/04/20 00:12:14;;;;;;;8.07;7.25;;;21.80;65.40;;;;;;6232754;28;89345;-71
2022/04/20 00:15:16;;;;;;;8.05;7.25;;;21.90;65.40;;;;;;6233490;28;90460;-70
2022/04/20 00:18:18;;;;;;;7.90;7.00;;;21.90;65.50;;;;;;6232809;28;87046;-71
2022/04/20 00:21:20;;;;;;;7.25;6.55;;;21.90;65.50;;;;;;6235272;28;88305;-71
2022/04/20 00:24:22;;;;;;;7.93;7.13;;;21.80;65.40;;;;;;6221323;28;89064;-71
2022/04/20 00:27:25;;;;;;;7.30;6.60;;;21.90;65.50;;;;;;6226078;28;87881;-70
2022/04/20 00:30:27;;;;;;;8.00;7.20;;;21.80;65.40;;;;;;6211126;28;88285;-70
2022/04/20 00:33:29;;;;;;;7.47;6.78;;;21.80;65.40;;;;;;6207186;28;87791;-70
2022/04/20 00:36:32;;;;;;;7.78;6.97;;;21.80;65.40;;;;;;6216144;28;87458;-70
2022/04/20 00:39:36;;;;;;;7.55;6.78;;;21.80;65.50;;;;;;6216094;28;89403;-70
2022/04/20 00:42:41;;;;;;;7.45;6.65;;;21.80;65.50;;;;;;6218644;28;89103;-70
2022/04/20 00:45:43;;;;;;;7.55;6.85;;;21.80;65.50;;;;;;6227358;28;90015;-71
2022/04/20 00:48:46;;;;;;;7.60;6.80;;;21.80;65.50;;;;;;6219342;28;88971;-71
2022/04/20 00:51:53;;;;;;;7.30;6.60;;;21.80;65.50;;;;;;6224211;28;89052;-71
2022/04/20 00:54:55;;;;;;;7.03;6.32;;;21.80;65.50;;;;;;6233012;28;89056;-70
2022/04/20 00:57:59;;;;;;;6.70;6.05;;;21.80;65.50;;;;;;6231764;28;88400;-70
2022/04/20 01:01:01;;;;;;;6.30;5.70;;;21.80;65.50;;;;;;6222299;28;90631;-71
2022/04/20 01:04:03;;;;;;;6.65;6.05;;;21.70;65.50;;;;;;6233248;28;89449;-71
2022/04/20 01:07:11;;;;;;;7.07;6.38;;;21.80;65.50;;;;;;6223505;28;87124;-71
2022/04/20 01:10:13;;;;;;;7.25;6.53;;;21.80;65.50;;;;;;6215982;28;89188;-70
2022/04/20 01:13:16;;;;;;;6.95;6.25;;;21.80;65.40;;;;;;6219860;28;89219;-70
2022/04/20 01:16:18;;;;;;;6.90;6.30;;;21.80;65.40;;;;;;6211526;28;89948;-71
2022/04/20 01:19:20;;;;;;;6.63;6.00;;;21.80;65.40;;;;;;6207168;28;88957;-71
2022/04/20 01:22:24;;;;;;;6.30;5.70;;;21.70;65.40;;;;;;6214997;28;91224;-72
2022/04/20 01:25:26;;;;;;;6.47;5.88;;;21.70;65.40;;;;;;6218142;28;89164;-70
2022/04/20 01:28:28;;;;;;;6.13;5.53;;;21.70;65.40;;;;;;6220474;28;89070;-71
2022/04/20 01:31:31;;;;;;;6.72;6.03;;;21.70;65.40;;;;;;6224905;28;89104;-70
2022/04/20 01:34:33;;;;;;;6.00;5.40;;;21.70;65.40;;;;;;6226812;28;88038;-71
2022/04/20 01:37:37;;;;;;;6.03;5.43;;;21.70;65.50;;;;;;6222987;28;87528;-70
2022/04/20 01:40:39;;;;;;;6.18;5.57;;;21.70;65.50;;;;;;6223102;28;87849;-71
2022/04/20 01:43:41;;;;;;;6.40;5.80;;;21.70;65.50;;;;;;6225434;28;88060;-71
2022/04/20 01:46:43;;;;;;;5.68;5.18;;;21.70;65.50;;;;;;6212636;28;90368;-71
2022/04/20 01:49:45;;;;;;;5.88;5.28;;;21.70;65.50;;;;;;6219805;28;89119;-71
2022/04/20 01:52:50;;;;;;;5.32;4.82;;;21.70;65.50;;;;;;6223677;28;89088;-71
2022/04/20 01:55:53;;;;;;;5.72;5.13;;;21.70;65.50;;;;;;6210197;28;87785;-71
2022/04/20 01:58:55;;;;;;;5.75;5.15;;;21.70;65.50;;;;;;6207340;28;89413;-71
2022/04/20 02:05:16;;;;;;;5.22;4.72;;;21.70;66.40;;;;;;6217104;28;87980;-71
2022/04/20 02:08:19;;;;;;;5.55;4.90;;;21.70;65.50;;;;;;6222722;28;87009;-70
2022/04/20 02:11:21;;;;;;;5.00;4.50;;;21.60;65.50;;;;;;6231291;28;89110;-71
2022/04/20 02:14:23;;;;;;;5.40;4.90;;;21.60;65.50;;;;;;6232061;28;88233;-71
2022/04/20 02:17:26;;;;;;;5.20;4.70;;;21.70;65.60;;;;;;6229771;28;90036;-70
2022/04/20 02:20:28;;;;;;;4.57;4.18;;;21.60;65.50;;;;;;6228906;28;89012;-72
2022/04/20 02:23:31;;;;;;;4.78;4.30;;;21.60;65.50;;;;;;6231289;28;87994;-70
2022/04/20 02:26:33;;;;;;;5.13;4.63;;;21.60;65.50;;;;;;6216190;28;89774;-71
2022/04/20 02:29:35;;;;;;;4.78;4.38;;;21.60;65.50;;;;;;6224033;28;88979;-71
2022/04/20 02:32:37;;;;;;;5.10;4.60;;;21.60;65.60;;;;;;6226687;28;89214;-71
2022/04/20 02:35:40;;;;;;;4.78;4.38;;;21.60;65.50;;;;;;6211918;28;89028;-71
2022/04/20 02:38:44;;;;;;;4.70;4.30;;;21.60;65.60;;;;;;6229648;28;88355;-71
2022/04/20 02:41:47;;;;;;;4.70;4.20;;;21.60;65.60;;;;;;6218383;28;89190;-72
2022/04/20 02:44:49;;;;;;;4.50;4.10;;;21.60;65.60;;;;;;6214894;28;87981;-71
2022/04/20 02:47:51;;;;;;;4.80;4.20;;;21.60;65.60;;;;;;6220042;28;89989;-71
2022/04/20 02:50:53;;;;;;;5.65;4.22;;;21.60;65.50;;;;;;6221730;28;89368;-72
2022/04/20 02:53:56;;;;;;;4.22;3.83;;;21.60;65.50;;;;;;6231348;28;87800;-71
2022/04/20 02:56:58;;;;;;;4.00;3.60;;;21.60;65.50;;;;;;6220809;28;87724;-71
2022/04/20 03:00:00;;;;;;;4.15;3.75;;;21.60;65.50;;;;;;6218827;28;87281;-71
2022/04/20 03:03:02;;;;;;;4.10;3.70;;;21.60;65.90;;;;;;6216469;28;89070;-71
2022/04/20 03:06:04;;;;;;;4.32;3.92;;;21.60;65.50;;;;;;6212679;28;89669;-72
2022/04/20 03:09:08;;;;;;;4.10;3.70;;;21.50;65.50;;;;;;6219547;28;88239;-71
2022/04/20 03:12:10;;;;;;;4.57;3.50;;;21.50;65.50;;;;;;6219875;28;89148;-70
2022/04/20 03:15:12;;;;;;;4.38;3.97;;;21.60;65.50;;;;;;6204468;28;86953;-70
2022/04/20 03:18:15;;;;;;;4.28;3.88;;;21.50;65.50;;;;;;6207070;28;90015;-71
2022/04/20 03:21:17;;;;;;;3.72;3.40;;;21.60;65.50;;;;;;6205810;28;90651;-71
2022/04/20 03:24:21;;;;;;;3.72;3.42;;;21.60;65.40;;;;;;6205456;28;89088;-70
2022/04/20 03:27:23;;;;;;;3.97;3.60;;;21.60;65.30;;;;;;6231609;28;89185;-70
2022/04/20 03:30:25;;;;;;;3.70;3.40;;;21.60;65.30;;;;;;6229857;28;89035;-71
2022/04/20 03:33:27;;;;;;;3.88;3.58;;;21.70;65.20;;;;;;6217489;28;89954;-71
2022/04/20 03:36:30;;;;;;;4.53;3.55;;;21.70;65.20;;;;;;6221830;28;89271;-70
2022/04/20 03:39:34;;;;;;;3.70;3.40;;;21.70;65.10;;;;;;6217562;28;88214;-71
2022/04/20 03:42:36;;;;;;;3.38;3.08;;;21.70;65.00;;;;;;6223268;28;89297;-69
2022/04/20 03:45:38;;;;;;;3.13;2.83;;;21.80;65.00;;;;;;6233158;28;89031;-70
2022/04/20 03:48:40;;;;;;;3.85;3.42;;;21.70;64.90;;;;;;6232645;28;90504;-71
2022/04/20 03:51:43;;;;;;;3.70;3.40;;;21.80;64.90;;;;;;6228104;28;87948;-71
2022/04/20 03:54:46;;;;;;;3.25;2.95;;;21.80;64.80;;;;;;6229049;28;88918;-71
2022/04/20 03:57:48;;;;;;;3.42;3.13;;;21.80;64.70;;;;;;6235121;28;87823;-71
2022/04/20 04:00:51;;;;;;;3.10;2.80;;;21.90;64.70;;;;;;6230421;28;87046;-70
2022/04/20 04:03:53;;;;;;;3.25;2.95;;;21.90;64.60;;;;;;6208745;28;88706;-71
2022/04/20 04:06:55;;;;;;;3.20;2.90;;;21.90;64.50;;;;;;6228760;28;89079;-71
2022/04/20 04:09:59;;;;;;;3.03;2.75;;;21.90;64.50;;;;;;6222510;28;88342;-71
2022/04/20 04:13:01;;;;;;;3.20;2.90;;;22.00;64.40;;;;;;6226417;28;90938;-72
2022/04/20 04:16:04;;;;;;;2.97;2.78;;;22.00;64.40;;;;;;6232266;28;87510;-71
2022/04/20 04:19:07;;;;;;;3.13;2.83;;;22.00;64.30;;;;;;6230858;28;90014;-71
2022/04/20 04:22:09;;;;;;;3.50;3.20;;;22.00;64.20;;;;;;6231126;28;89108;-72
2022/04/20 04:25:12;;;;;;;3.50;3.20;;;22.10;64.20;;;;;;6231700;28;88001;-71
2022/04/20 04:28:14;;;;;;;3.00;2.80;;;22.10;64.20;;;;;;6231949;28;89008;-71
2022/04/20 04:31:16;;;;;;;3.53;3.22;;;22.10;64.20;;;;;;6230558;28;87956;-71
2022/04/20 04:34:18;;;;;;;3.38;3.08;;;22.10;64.20;;;;;;6231907;28;88652;-71
2022/04/20 04:37:20;;;;;;;3.55;3.25;;;22.10;64.10;;;;;;6230193;28;87908;-71
2022/04/20 04:40:24;;;;;;;3.30;3.00;;;22.10;64.20;;;;;;6225308;28;87253;-71
2022/04/20 04:43:26;;;;;;;3.60;3.30;;;22.10;64.20;;;;;;6212217;28;89172;-70
2022/04/20 04:49:48;;;;;;;3.58;3.28;;;22.10;64.20;;;;;;6212264;28;88378;-71
2022/04/20 04:52:50;;;;;;;3.97;3.67;;;22.10;65.10;;;;;;6226142;28;89472;-71
2022/04/20 04:55:53;;;;;;;4.13;3.72;;;22.10;64.20;;;;;;6227006;28;88539;-70
2022/04/20 04:58:56;;;;;;;3.97;3.60;;;22.10;64.30;;;;;;6222499;28;87819;-71
2022/04/20 05:01:58;;;;;;;5.00;4.60;;;22.10;64.90;;;;;;6221328;28;89036;-70
2022/04/20 05:05:00;;;;;;;4.30;3.90;;;22.10;67.70;;;;;;6220724;28;89216;-70
2022/04/20 05:08:02;;;;;;;7.57;5.20;;;22.20;65.90;;;;;;6230242;28;90221;-71
2022/04/20 05:11:05;;;;;;;4.43;4.03;;;22.20;66.90;;;;;;6228235;28;88369;-71
2022/04/20 05:14:07;;;;;;;4.47;4.07;;;22.40;65.50;;;;;;6222246;28;87810;-70
2022/04/20 05:20:28;;;;;;;4.57;4.18;;;22.40;64.60;;;;;;6226844;28;88435;-72
2022/04/20 05:23:30;;;;;;;4.22;3.88;;;22.50;64.50;;;;;;6218296;28;87789;-71
2022/04/20 05:26:34;;;;;;;3.95;3.65;;;22.50;64.50;;;;;;6233743;28;89486;-71
2022/04/20 05:29:36;;;;;;;4.50;4.10;;;22.50;64.40;;;;;;6232180;28;87858;-70
2022/04/20 05:32:38;;;;;;;4.70;4.30;;;22.50;64.20;;;;;;6218043;28;89019;-69
2022/04/20 05:35:40;;;;;;;4.57;4.07;;;22.50;64.20;;;;;;6231157;28;89080;-70
2022/04/20 05:42:03;;;;;;;4.60;4.20;;;22.50;64.20;;;;;;6209258;28;86560;-71
2022/04/20 05:45:06;;;;;;;4.38;3.97;;;22.50;64.10;;;;;;6215301;28;89474;-72
2022/04/20 05:48:10;;;;;;;4.40;4.00;;;22.50;64.10;;;;;;6215827;28;89097;-71
2022/04/20 05:51:13;;;;;;;4.72;4.32;;;22.50;64.10;;;;;;6219238;28;88424;-70
2022/04/20 05:54:15;;;;;;;4.60;4.20;;;22.50;64.10;;;;;;6215855;28;89077;-71
2022/04/20 05:57:18;;;;;;;4.65;4.25;;;22.50;64.10;;;;;;6219359;28;89077;-71
2022/04/20 06:00:20;;;;;;;4.55;4.15;;;22.60;64.20;;;;;;6226158;28;87942;-70
2022/04/20 06:03:22;;;;;;;4.60;4.20;;;22.60;64.20;;;;;;6218223;28;89139;-70
2022/04/20 06:06:24;;;;;;;4.32;3.92;;;22.60;64.20;;;;;;6229521;28;88038;-71
2022/04/20 06:09:26;;;;;;;4.78;4.38;;;22.60;64.20;;;;;;6209446;28;89132;-70
2022/04/20 06:12:30;;;;;;;4.25;3.85;;;22.60;64.20;;;;;;6229081;28;88470;-71
2022/04/20 06:15:32;;;;;;;4.60;4.20;;;22.60;64.20;;;;;;6223963;28;89178;-70
2022/04/20 06:18:34;;;;;;;4.60;4.20;;;22.60;64.10;;;;;;6219729;28;89210;-71
2022/04/20 06:21:36;;;;;;;4.55;4.15;;;22.60;64.10;;;;;;6213550;28;88707;-71
2022/04/20 06:24:38;;;;;;;4.43;4.03;;;22.70;64.10;;;;;;6208276;28;87992;-71
2022/04/20 06:27:41;;;;;;;4.68;4.28;;;22.70;64.10;;;;;;6220173;28;89325;-71
2022/04/20 06:30:43;;;;;;;4.32;3.92;;;22.70;64.10;;;;;;6219029;28;87774;-71
2022/04/20 06:33:45;;;;;;;4.10;3.80;;;22.70;64.00;;;;;;6229350;28;87959;-71
2022/04/20 06:36:47;;;;;;;4.05;3.72;;;22.70;64.00;;;;;;6223310;28;87967;-70
2022/04/20 06:39:50;;;;;;;5.07;3.75;;;22.70;64.00;;;;;;6218040;28;89072;-71
2022/04/20 06:42:53;;;;;;;4.43;4.03;;;22.70;64.00;;;;;;6221726;28;88381;-70
2022/04/20 06:45:56;;;;;;;4.60;4.20;;;22.70;64.00;;;;;;6217267;28;88984;-70
2022/04/20 06:48:58;;;;;;;3.80;3.50;;;22.70;64.00;;;;;;6231426;28;89600;-70
2022/04/20 06:58:41;;;;;;;4.03;3.67;;;22.80;64.00;;;;;;6226719;28;87105;-70
2022/04/20 07:01:43;;;;;;;4.53;4.13;;;22.80;64.00;;;;;;6222781;28;89012;-70
2022/04/20 07:04:45;;;;;;;4.35;3.80;;;22.80;64.00;;;;;;6225920;28;89072;-71
2022/04/20 07:07:47;;;;;;;3.70;3.40;;;22.80;64.00;;;;;;6218213;28;87838;-70
2022/04/20 07:10:50;;;;;;;3.88;3.58;;;22.80;63.90;;;;;;6214055;28;89371;-70
2022/04/20 07:13:53;;;;;;;3.92;3.63;;;22.80;64.00;;;;;;6228845;28;88292;-69
2022/04/20 07:16:56;;;;;;;4.00;3.70;;;22.80;64.00;;;;;;6223750;28;88938;-69
2022/04/20 07:19:58;;;;;;;4.20;3.80;;;22.90;64.00;;;;;;6222292;28;87875;-71
2022/04/20 07:23:00;;;;;;;3.80;3.50;;;22.80;64.00;;;;;;6228663;28;90026;-70
2022/04/20 07:26:02;;;;;;;4.25;3.70;;;22.90;64.00;;;;;;6221740;28;89073;-70
2022/04/20 07:29:06;;;;;;;3.80;3.50;;;22.90;64.00;;;;;;6223308;28;88945;-70
2022/04/20 07:32:09;;;;;;;3.70;3.40;;;22.80;63.90;;;;;;6228420;28;87328;-70
2022/04/20 07:35:11;;;;;;;4.10;3.70;;;22.90;64.00;;;;;;6229176;28;88050;-70
2022/04/20 07:38:14;;;;;;;4.18;3.53;;;22.90;64.00;;;;;;6232327;28;89430;-70
2022/04/20 07:41:16;;;;;;;3.63;3.33;;;22.90;64.00;;;;;;6219367;28;88221;-70
2022/04/20 07:44:19;;;;;;;3.63;3.33;;;22.90;64.00;;;;;;6227614;28;87370;-69
2022/04/20 07:47:24;;;;;;;4.03;3.63;;;22.90;64.00;;;;;;6225189;28;89783;-68
2022/04/20 07:50:27;;;;;;;3.92;3.53;;;22.90;64.00;;;;;;6216823;28;89048;-69
2022/04/20 07:53:29;;;;;;;3.50;3.20;;;22.90;63.90;;;;;;6231842;28;90563;-69
2022/04/20 07:56:31;;;;;;;3.55;3.25;;;22.90;63.90;;;;;;6210760;28;87829;-69
2022/04/20 07:59:35;;;;;;;3.60;3.30;;;22.90;63.80;;;;;;6216147;28;88656;-69
2022/04/20 08:02:37;;;;;;;3.50;3.20;;;22.90;63.80;;;;;;6209110;28;88991;-69
2022/04/20 08:05:40;;;;;;;3.75;3.45;;;23.00;63.90;;;;;;6216952;28;89150;-69
2022/04/20 08:08:42;;;;;;;3.67;3.38;;;23.00;63.80;;;;;;6231119;28;89105;-69
2022/04/20 08:11:44;;;;;;;3.60;3.30;;;23.00;63.90;;;;;;6223399;28;89141;-69
2022/04/20 08:14:47;;;;;;;3.60;3.20;;;23.00;64.00;;;;;;6217003;28;88384;-68
2022/04/20 08:17:49;;;;;;;3.38;3.08;;;23.00;64.00;;;;;;6213879;28;89885;-67
2022/04/20 08:20:51;;;;;;;3.60;3.30;;;23.00;64.00;;;;;;6213129;28;87978;-67
2022/04/20 08:23:53;;;;;;;3.50;3.20;;;23.00;64.00;;;;;;6214082;28;89998;-66
2022/04/20 08:26:56;;;;;;;3.28;3.00;;;23.00;64.00;;;;;;6230601;28;89225;-66
2022/04/20 08:29:59;;;;;;;3.75;3.38;;;23.00;64.00;;;;;;6231469;28;89315;-68
2022/04/20 08:33:01;;;;;;;3.38;3.08;;;23.00;64.00;;;;;;6210979;28;89114;-69
2022/04/20 08:36:03;;;;;;;3.63;3.33;;;23.00;64.00;;;;;;6220396;28;89273;-68
2022/04/20 08:39:05;;;;;;;3.42;3.13;;;23.10;64.10;;;;;;6215565;28;89387;-69
2022/04/20 08:42:11;;;;;;;3.60;3.30;;;23.00;64.00;;;;;;6221721;28;89075;-70
2022/04/20 08:45:16;;;;;;;3.90;3.50;;;23.10;64.10;;;;;;6220675;28;87088;-68
2022/04/20 08:48:18;;;;;;;4.45;3.30;;;23.10;64.10;;;;;;6230823;28;87215;-69
2022/04/20 08:51:21;;;;;;;3.38;3.08;;;23.00;64.00;;;;;;6219255;28;89006;-67
2022/04/20 08:54:23;;;;;;;3.90;3.60;;;23.10;64.10;;;;;;6218256;28;90046;-67
2022/04/20 08:57:26;;;;;;;3.95;3.20;;;23.10;64.20;;;;;;6234381;28;89090;-66
2022/04/20 09:00:30;;;;;;;3.65;3.25;;;23.10;64.20;;;;;;6232007;28;89043;-69
2022/04/20 09:03:34;;;;;;;3.95;3.10;;;23.10;64.20;;;;;;6211809;28;89148;-68
2022/04/20 09:06:36;;;;;;;3.55;3.25;;;23.10;64.20;;;;;;6227275;28;88961;-68
2022/04/20 09:09:39;;;;;;;4.05;3.20;;;23.10;64.20;;;;;;6228909;28;87898;-67
2022/04/20 09:12:43;;;;;;;3.60;3.30;;;23.10;64.20;;;;;;6231202;28;89094;-69
2022/04/20 09:15:50;;;;;;;5.18;3.13;;;23.10;64.20;;;;;;6233335;28;88283;-68
2022/04/20 09:18:52;;;;;;;3.45;3.15;;;23.10;64.20;;;;;;6215495;28;87917;-69
2022/04/20 09:21:55;;;;;;;3.38;3.08;;;23.10;64.20;;;;;;6221485;28;89151;-68
2022/04/20 09:25:06;;;;;;;3.40;3.10;;;23.10;64.30;;;;;;6220920;28;90363;-69
2022/04/20 09:28:09;;;;;;;4.18;3.42;;;23.10;64.30;;;;;;6223729;28;88938;-67
2022/04/20 09:31:13;;;;;;;3.63;3.33;;;23.10;64.20;;;;;;6219501;28;89428;-69
2022/04/20 09:34:36;;;;;;;3.50;3.20;;;23.10;64.40;;;;;;6216379;28;87870;-68
2022/04/20 09:37:38;;;;;;;4.97;3.50;;;23.10;64.50;;;;;;6216330;28;89467;-68
2022/04/20 09:40:40;;;;;;;4.25;3.33;;;23.20;64.40;;;;;;6225523;28;88248;-68
2022/04/20 09:43:42;;;;;;;3.50;3.20;;;23.20;64.40;;;;;;6222235;28;89091;-68
2022/04/20 09:50:16;;;;;;;3.97;3.25;;;23.20;64.40;;;;;;6209459;28;87133;-68
2022/04/20 09:53:18;;;;;;;3.67;2.90;;;23.20;64.40;;;;;;6221085;28;87869;-68
2022/04/20 09:56:22;;;;;;;3.33;3.03;;;23.20;64.40;;;;;;6212455;28;90045;-68
2022/04/20 09:59:24;;;;;;;3.70;3.40;;;23.20;64.40;;;;;;6206656;28;88105;-68
2022/04/20 10:02:29;;;;;;;3.47;3.03;;;23.20;64.40;;;;;;6228241;28;87848;-68
2022/04/20 10:05:32;;;;;;;3.28;2.97;;;23.20;64.40;;;;;;6221752;28;87898;-69
2022/04/20 10:08:34;;;;;;;3.42;3.13;;;23.20;64.50;;;;;;6228418;28;89222;-68
2022/04/20 10:11:38;;;;;;;4.55;3.13;;;23.20;64.50;;;;;;6231501;28;89428;-68
2022/04/20 10:18:03;;;;;;;4.90;3.30;;;23.20;64.50;;;;;;6230522;28;87036;-68
2022/04/20 10:21:08;;;;;;;3.58;3.05;;;23.20;64.50;;;;;;6221472;28;90656;-69
2022/04/20 10:24:15;;;;;;;3.28;2.97;;;23.30;64.60;;;;;;6217685;28;89043;-68
2022/04/20 10:27:23;;;;;;;3.38;3.00;;;23.30;64.60;;;;;;6218829;28;90076;-68
2022/04/20 10:30:32;;;;;;;3.17;2.90;;;23.30;65.50;;;;;;6225720;28;88071;-68
2022/04/20 10:33:38;;;;;;;3.40;3.10;;;23.30;64.70;;;;;;6211793;28;89061;-68
2022/04/20 10:36:40;;;;;;;3.30;3.00;;;23.30;64.70;;;;;;6213912;28;89231;-68
2022/04/20 10:39:42;;;;;;;3.58;3.00;;;23.30;64.70;;;;;;6218224;28;89265;-66
2022/04/20 10:42:45;;;;;;;3.22;2.92;;;23.30;64.70;;;;;;6218517;28;89166;-67
2022/04/20 10:46:09;;;;;;;3.22;2.92;;;23.30;64.70;;;;;;6243078;28;87781;-67
2022/04/20 10:49:18;;;;;;;3.17;2.88;;;23.30;64.70;;;;;;6207919;28;86342;-67
2022/04/20 10:52:25;;;;;;;3.20;3.00;;;23.30;64.70;;;;;;6212855;28;89053;-67
2022/04/20 10:55:53;;;;;;;3.10;2.80;;;23.30;64.70;;;;;;6214334;28;88215;-67
2022/04/20 10:59:10;;;;;;;3.20;2.90;;;23.30;64.70;;;;;;6220915;28;89010;-67
2022/04/20 11:02:13;;;;;;;3.30;3.00;;;23.30;64.70;;;;;;6214101;28;88122;-66
2022/04/20 11:05:20;;;;;;;3.00;2.70;;;23.30;64.70;;;;;;6220713;28;89270;-67
2022/04/20 11:08:24;;;;;;;3.75;2.65;;;23.30;64.80;;;;;;6230340;28;89083;-74
2022/04/20 11:19:05;;;;;;;2.95;2.58;;;23.40;65.40;;;;;;6205165;28;87441;-67
2022/04/20 11:22:09;;;;;;;3.30;2.95;;;23.30;65.40;;;;;;6223704;28;88368;-69
2022/04/20 11:25:11;;;;;;;8.02;6.70;;;23.40;66.10;;;;;;6211387;28;89121;-69
2022/04/20 11:28:13;;;;;;;13.57;12.25;;;23.40;66.60;;;;;;6216718;28;89051;-69
2022/04/20 11:31:16;;;;;;;19.10;17.10;;;23.40;69.10;;;;;;6211508;28;89865;-70
2022/04/20 11:34:20;;;;;;;17.50;15.00;;;23.40;69.60;;;;;;6219856;28;88309;-67
2022/04/20 11:37:24;;;;;;;64.93;58.28;;;23.40;70.00;;;;;;6213154;28;89243;-68
2022/04/20 11:40:26;;;;;;;199.63;180.43;;;23.50;74.70;;;;;;6218911;28;88099;-69
2022/04/20 11:43:28;;;;;;;870.40;784.75;;;23.50;75.30;;;;;;6213959;28;89376;-70
2022/04/20 11:46:34;;;;;;;643.83;587.70;;;23.60;74.70;;;;;;6202789;28;87973;-70
2022/04/20 11:49:39;;;;;;;311.77;285.25;;;23.80;74.90;;;;;;6215320;28;89136;-70
2022/04/20 11:52:43;;;;;;;212.48;193.43;;;24.10;70.40;;;;;;6224315;28;88031;-69
2022/04/20 11:55:47;;;;;;;183.13;166.77;;;24.30;68.60;;;;;;6206244;28;87686;-70
2022/04/20 11:58:51;;;;;;;179.20;162.38;;;24.50;67.70;;;;;;6216062;28;87955;-69
2022/04/20 12:01:54;;;;;;;165.77;150.43;;;24.50;67.00;;;;;;6206368;28;88902;-68
2022/04/20 12:05:05;;;;;;;158.57;143.82;;;24.50;66.20;;;;;;6225985;28;89079;-67
2022/04/20 12:08:10;;;;;;;149.23;135.60;;;24.50;65.80;;;;;;6229701;28;88976;-69
2022/04/20 12:11:12;;;;;;;110.68;100.65;;;24.40;65.20;;;;;;6225999;28;88944;-69
2022/04/20 12:14:15;;;;;;;85.93;77.93;;;24.30;62.40;;;;;;6212949;28;88285;-69
2022/04/20 12:17:20;;;;;;;70.85;64.15;;;24.30;60.10;;;;;;6213290;28;89033;-69
2022/04/20 12:20:25;;;;;;;64.78;58.40;;;24.10;59.90;;;;;;6217349;28;89213;-70
2022/04/20 12:23:34;;;;;;;57.08;46.33;;;24.00;60.00;;;;;;6222107;28;87069;-69
2022/04/20 12:26:40;;;;;;;42.97;35.22;;;23.90;57.90;;;;;;6208370;28;88018;-70
2022/04/20 12:29:44;;;;;;;48.20;34.50;;;23.80;56.90;;;;;;6216868;28;89068;-70
2022/04/20 12:32:46;;;;;;;31.85;25.15;;;23.70;57.80;;;;;;6230207;28;88735;-70
2022/04/20 12:36:00;;;;;;;29.80;24.23;;;23.70;58.60;;;;;;6230078;28;88213;-69
2022/04/20 12:39:04;;;;;;;34.85;25.65;;;23.60;57.50;;;;;;6216803;28;89016;-69
2022/04/20 12:42:07;;;;;;;23.38;19.50;;;23.60;58.00;;;;;;6231948;28;87829;-69
2022/04/20 12:45:22;;;;;;;20.25;17.67;;;23.50;57.60;;;;;;6223909;28;89099;-68
2022/04/20 12:48:24;;;;;;;25.13;18.73;;;23.50;57.00;;;;;;6214477;28;88881;-69
2022/04/20 12:51:26;;;;;;;20.30;15.57;;;23.50;57.30;;;;;;6230674;28;89009;-70
2022/04/20 12:54:30;;;;;;;19.70;14.20;;;23.40;57.10;;;;;;6219381;28;87242;-70
2022/04/20 13:04:11;;;;;;;31.45;15.57;;;23.30;57.30;;;;;;6220243;28;88209;-69
2022/04/20 13:07:13;;;;;;;29.30;17.75;;;23.30;59.00;;;;;;6225164;28;89079;-69
2022/04/20 13:10:17;;;;;;;20.08;12.52;;;23.30;59.00;;;;;;6223230;28;89312;-69
2022/04/20 13:13:23;;;;;;;15.98;10.52;;;23.30;58.50;;;;;;6228944;28;89003;-69
2022/04/20 13:16:25;;;;;;;11.98;9.02;;;23.20;58.00;;;;;;6217758;28;89390;-70
2022/04/20 13:19:27;;;;;;;11.07;8.48;;;23.20;57.60;;;;;;6219598;28;88192;-70
2022/04/20 13:22:29;;;;;;;10.15;8.25;;;23.20;56.60;;;;;;6220971;28;91026;-69
2022/04/20 13:28:53;;;;;;;10.30;8.25;;;23.20;57.70;;;;;;6216583;28;87331;-70
2022/04/20 13:31:56;;;;;;;9.65;8.00;;;23.30;58.20;;;;;;6218655;28;89046;-70
2022/04/20 13:34:57;;;;;;;12.65;9.20;;;23.30;58.30;;;;;;6206767;28;90254;-70
2022/04/20 13:38:00;;;;;;;9.00;8.10;;;23.30;66.50;;;;;;6217964;28;89431;-69
2022/04/20 13:41:03;;;;;;;10.27;8.32;;;23.30;66.80;;;;;;6216736;28;88296;-70
2022/04/20 13:44:05;;;;;;;8.18;7.38;;;23.40;66.10;;;;;;6207833;28;89070;-70
2022/04/20 13:47:08;;;;;;;8.55;7.38;;;23.40;65.20;;;;;;6230224;28;89031;-69
2022/04/20 13:50:10;;;;;;;8.20;7.40;;;23.40;62.80;;;;;;6229119;28;89061;-69
2022/04/20 13:53:12;;;;;;;7.70;6.88;;;23.40;62.60;;;;;;6232007;28;87787;-69
2022/04/20 13:56:15;;;;;;;7.38;6.68;;;23.40;61.90;;;;;;6226170;28;87667;-69
2022/04/20 13:59:17;;;;;;;7.65;6.40;;;23.40;62.10;;;;;;6223170;28;89051;-71
2022/04/20 14:02:19;;;;;;;8.80;6.63;;;23.40;62.10;;;;;;6226664;28;87979;-70
2022/04/20 14:05:22;;;;;;;7.60;6.28;;;23.40;61.90;;;;;;6218276;28;88727;-69
2022/04/20 14:08:24;;;;;;;7.30;6.43;;;23.40;61.90;;;;;;6218935;28;89103;-70
2022/04/20 14:11:28;;;;;;;7.40;5.80;;;23.40;61.90;;;;;;6231112;28;88695;-70
2022/04/20 14:14:30;;;;;;;7.95;5.97;;;23.50;62.30;;;;;;6220941;28;89060;-70
2022/04/20 14:17:32;;;;;;;6.53;5.50;;;23.50;62.40;;;;;;6206802;28;87769;-71
2022/04/20 14:20:35;;;;;;;7.32;5.65;;;23.50;62.30;;;;;;6224219;28;89316;-70
2022/04/20 14:23:37;;;;;;;6.75;5.32;;;23.50;62.40;;;;;;6217786;28;89338;-71
2022/04/20 14:33:19;;;;;;;5.55;4.97;;;23.50;62.50;;;;;;6231672;28;87740;-70
2022/04/20 14:36:21;;;;;;;6.00;4.90;;;23.50;62.50;;;;;;6228481;28;89729;-72
2022/04/20 14:39:23;;;;;;;5.20;4.75;;;23.50;62.40;;;;;;6218401;28;90273;-71
2022/04/20 14:42:27;;;;;;;5.47;4.90;;;23.50;62.70;;;;;;6223875;28;88042;-72
2022/04/20 14:45:29;;;;;;;5.25;4.38;;;23.50;62.80;;;;;;6221184;28;89147;-71
2022/04/20 14:48:31;;;;;;;5.15;4.65;;;23.50;63.00;;;;;;6225347;28;87969;-71
2022/04/20 14:51:35;;;;;;;4.95;4.40;;;23.60;63.00;;;;;;6225068;28;89073;-72
2022/04/20 14:54:38;;;;;;;4.72;4.28;;;23.60;63.10;;;;;;6224172;28;88953;-70
2022/04/20 14:57:43;;;;;;;5.20;4.68;;;23.60;63.00;;;;;;6226744;28;88260;-71
2022/04/20 15:00:45;;;;;;;4.55;4.15;;;23.50;63.40;;;;;;6209893;28;87888;-71
2022/04/20 15:03:48;;;;;;;6.00;4.25;;;23.60;63.20;;;;;;6217967;28;89108;-71
2022/04/20 15:06:53;;;;;;;5.30;4.18;;;23.60;63.30;;;;;;6227897;28;88159;-71
2022/04/20 15:09:57;;;;;;;5.00;4.20;;;23.50;63.30;;;;;;6220288;28;88352;-71
2022/04/20 15:13:02;;;;;;;5.28;3.90;;;23.50;63.50;;;;;;6219245;28;88978;-69
2022/04/20 15:16:06;;;;;;;4.70;4.10;;;23.60;63.50;;;;;;6228868;28;88075;-69
2022/04/20 15:19:11;;;;;;;4.80;4.10;;;23.50;63.80;;;;;;6210126;28;89177;-69
2022/04/20 15:22:13;;;;;;;4.32;3.92;;;23.50;64.90;;;;;;6214889;28;89834;-70
2022/04/20 15:25:16;;;;;;;6.25;3.80;;;23.50;64.50;;;;;;6224787;28;89240;-69
2022/04/20 15:28:20;;;;;;;5.70;3.90;;;23.50;64.50;;;;;;6216649;28;88352;-69
2022/04/20 15:31:22;;;;;;;5.80;3.92;;;23.50;64.80;;;;;;6217401;28;89742;-72
2022/04/20 15:34:25;;;;;;;6.05;3.92;;;23.50;65.00;;;;;;6220033;28;88275;-69
2022/04/20 15:37:27;;;;;;;6.00;3.55;;;23.60;65.00;;;;;;6221207;28;90050;-69
2022/04/20 15:40:29;;;;;;;4.47;3.80;;;23.60;65.20;;;;;;6223796;28;89169;-68
2022/04/20 15:43:34;;;;;;;4.93;3.42;;;23.50;65.20;;;;;;6219736;28;89583;-68
2022/04/20 15:46:36;;;;;;;3.75;3.40;;;23.60;65.20;;;;;;6216203;28;89189;-68
2022/04/20 15:49:38;;;;;;;3.78;3.38;;;23.50;65.00;;;;;;6217189;28;89385;-68
2022/04/20 15:52:40;;;;;;;4.80;3.55;;;23.60;65.00;;;;;;6216971;28;89135;-68
2022/04/20 16:02:21;;;;;;;5.10;3.60;;;23.60;65.10;;;;;;6220753;28;87272;-68
2022/04/20 16:05:23;;;;;;;4.43;3.50;;;23.50;65.10;;;;;;6216697;28;89138;-68
2022/04/20 16:08:25;;;;;;;4.00;3.40;;;23.60;65.20;;;;;;6221450;28;90309;-69
2022/04/20 16:11:28;;;;;;;4.53;3.25;;;23.50;65.10;;;;;;6228356;28;91024;-69
2022/04/20 16:14:31;;;;;;;3.40;3.10;;;23.50;65.10;;;;;;6215027;28;89160;-68
2022/04/20 16:17:34;;;;;;;3.80;2.97;;;23.50;65.10;;;;;;6218347;28;89110;-69
2022/04/20 16:20:36;;;;;;;3.97;3.22;;;23.60;65.10;;;;;;6224371;28;89205;-68
2022/04/20 16:23:38;;;;;;;3.25;2.95;;;23.50;65.00;;;;;;6208314;28;88404;-70
2022/04/20 16:26:40;;;;;;;3.25;2.90;;;23.60;65.20;;;;;;6213202;28;89026;-69
2022/04/20 16:29:43;;;;;;;3.50;2.90;;;23.60;65.30;;;;;;6211511;28;87062;-69
2022/04/20 16:32:45;;;;;;;2.72;2.53;;;23.50;65.20;;;;;;6208053;28;89463;-69
2022/04/20 16:35:48;;;;;;;3.95;3.03;;;23.60;65.20;;;;;;6215855;28;89471;-68
2022/04/20 16:38:50;;;;;;;3.20;2.90;;;23.50;65.10;;;;;;6231789;28;90021;-69
2022/04/20 16:41:52;;;;;;;3.10;2.80;;;23.50;65.00;;;;;;6219140;28;89298;-69
2022/04/20 16:44:56;;;;;;;3.97;2.80;;;23.60;65.10;;;;;;6219721;28;89574;-69